Time,TemperatureF,DewpointF,PressureIn,WindDirection,WindDirectionDegrees,WindSpeedMPH,WindSpeedGustMPH,Humidity,HourlyPrecipIn,Conditions,Clouds,dailyrainin,SoftwareType,DateUTC
2013-11-25 00:03:00,37.3,32.0,30.27,NNE,12,0.0,0.0,80,0.00,,,0.00,weatherlink.com 1.10,2013-11-25 08:03:00,
2013-11-25 00:18:00,36.1,31.0,30.27,NNE,22,0.0,1.0,83,0.00,,,0.00,weatherlink.com 1.10,2013-11-25 08:18:00,
2013-11-25 00:33:00,37.2,32.0,30.27,North,4,0.0,0.0,81,0.00,,,0.00,weatherlink.com 1.10,2013-11-25 08:33:00,
2013-11-25 00:48:00,37.3,32.0,30.27,North,6,0.0,2.0,80,0.00,,,0.00,weatherlink.com 1.10,2013-11-25 08:48:00,
2013-11-25 01:03:00,36.9,32.0,30.28,NNE,18,0.0,0.0,81,0.00,,,0.00,weatherlink.com 1.10,2013-11-25 09:03:00,
2013-11-25 01:18:00,37.9,32.0,30.28,NNE,23,0.0,3.0,78,0.00,,,0.00,weatherlink.com 1.10,2013-11-25 09:18:00,
2013-11-25 01:33:00,35.3,31.0,30.28,NNE,23,0.0,0.0,84,0.00,,,0.00,weatherlink.com 1.10,2013-11-25 09:33:00,
2013-11-25 01:48:00,35.1,31.0,30.28,NNE,18,0.0,0.0,84,0.00,,,0.00,weatherlink.com 1.10,2013-11-25 09:48:00,
2013-11-25 02:03:00,37.2,31.0,30.28,North,4,0.0,0.0,79,0.00,,,0.00,weatherlink.com 1.10,2013-11-25 10:03:00,
2013-11-25 02:18:00,38.1,31.0,30.28,North,354,0.0,2.0,76,0.00,,,0.00,weatherlink.com 1.10,2013-11-25 10:18:00,
2013-11-25 02:33:00,36.5,31.0,30.28,NE,49,0.0,0.0,79,0.00,,,0.00,weatherlink.com 1.10,2013-11-25 10:33:00,
2013-11-25 02:48:00,35.3,31.0,30.28,NNW,337,3.0,3.0,84,0.00,,,0.00,weatherlink.com 1.10,2013-11-25 10:48:00,
2013-11-25 03:03:00,36.0,31.0,30.28,North,352,0.0,0.0,81,0.00,,,0.00,weatherlink.com 1.10,2013-11-25 11:03:00,
2013-11-25 03:18:00,36.7,31.0,30.28,NNW,348,1.0,1.0,79,0.00,,,0.00,weatherlink.com 1.10,2013-11-25 11:18:00,
2013-11-25 03:33:00,37.7,31.0,30.28,NNE,18,0.0,0.0,77,0.00,,,0.00,weatherlink.com 1.10,2013-11-25 11:33:00,
2013-11-25 03:48:00,36.7,31.0,30.29,NNE,20,0.0,0.0,79,0.00,,,0.00,weatherlink.com 1.10,2013-11-25 11:48:00,
2013-11-25 04:03:00,36.4,31.0,30.29,North,6,0.0,1.0,80,0.00,,,0.00,weatherlink.com 1.10,2013-11-25 12:03:00,
2013-11-25 04:18:00,37.7,31.0,30.29,North,354,0.0,0.0,77,0.00,,,0.00,weatherlink.com 1.10,2013-11-25 12:18:00,
2013-11-25 04:33:00,37.0,31.0,30.29,NNE,16,0.0,1.0,78,0.00,,,0.00,weatherlink.com 1.10,2013-11-25 12:33:00,
2013-11-25 04:48:00,34.8,30.0,30.28,NNE,18,0.0,0.0,83,0.00,,,0.00,weatherlink.com 1.10,2013-11-25 12:48:00,
2013-11-25 05:03:00,33.8,30.0,30.29,North,11,0.0,0.0,85,0.00,,,0.00,weatherlink.com 1.10,2013-11-25 13:03:00,
2013-11-25 05:18:00,34.1,30.0,30.28,NNE,18,0.0,0.0,84,0.00,,,0.00,weatherlink.com 1.10,2013-11-25 13:18:00,
2013-11-25 05:33:00,33.6,30.0,30.28,NNE,20,0.0,0.0,85,0.00,,,0.00,weatherlink.com 1.10,2013-11-25 13:33:00,
2013-11-25 05:48:00,34.3,30.0,30.29,NNE,30,0.0,0.0,85,0.00,,,0.00,weatherlink.com 1.10,2013-11-25 13:48:00,
2013-11-25 06:03:00,34.2,30.0,30.30,NNE,27,0.0,0.0,85,0.00,,,0.00,weatherlink.com 1.10,2013-11-25 14:03:00,
2013-11-25 06:18:00,33.9,30.0,30.30,NNE,29,0.0,0.0,86,0.00,,,0.00,weatherlink.com 1.10,2013-11-25 14:18:00,
2013-11-25 06:33:00,33.9,30.0,30.30,NNE,28,0.0,0.0,86,0.00,,,0.00,weatherlink.com 1.10,2013-11-25 14:33:00,
2013-11-25 06:48:00,34.3,31.0,30.30,NNE,29,0.0,0.0,86,0.00,,,0.00,weatherlink.com 1.10,2013-11-25 14:48:00,
2013-11-25 07:03:00,35.6,31.0,30.31,NNE,30,0.0,0.0,82,0.00,,,0.00,weatherlink.com 1.10,2013-11-25 15:03:00,
2013-11-25 07:18:00,36.7,32.0,30.32,NNW,345,0.0,0.0,82,0.00,,,0.00,weatherlink.com 1.10,2013-11-25 15:18:00,
2013-11-25 07:33:00,38.6,33.0,30.33,North,10,0.0,0.0,79,0.00,,,0.00,weatherlink.com 1.10,2013-11-25 15:33:00,
2013-11-25 07:48:00,41.4,33.0,30.33,North,8,0.0,2.0,71,0.00,,,0.00,weatherlink.com 1.10,2013-11-25 15:48:00,
2013-11-25 08:03:00,41.9,33.0,30.33,NNE,18,0.0,0.0,71,0.00,,,0.00,weatherlink.com 1.10,2013-11-25 16:03:00,
2013-11-25 08:18:00,44.2,33.0,30.33,NNE,29,0.0,0.0,65,0.00,,,0.00,weatherlink.com 1.10,2013-11-25 16:18:00,
2013-11-25 08:33:00,46.3,32.0,30.34,NNE,12,0.0,0.0,57,0.00,,,0.00,weatherlink.com 1.10,2013-11-25 16:33:00,
2013-11-25 08:48:00,47.5,31.0,30.34,NNW,337,0.0,0.0,53,0.00,,,0.00,weatherlink.com 1.10,2013-11-25 16:48:00,
2013-11-25 09:03:00,47.9,30.0,30.35,NNE,19,0.0,0.0,51,0.00,,,0.00,weatherlink.com 1.10,2013-11-25 17:03:00,
2013-11-25 09:33:00,49.1,30.0,30.35,North,354,0.0,0.0,48,0.00,,,0.00,weatherlink.com 1.10,2013-11-25 17:33:00,
2013-11-25 09:49:00,49.6,31.0,30.35,NNE,13,0.0,0.0,50,0.00,,,0.00,weatherlink.com 1.10,2013-11-25 17:49:00,
2013-11-25 10:03:00,50.4,30.0,30.35,NW,311,0.0,0.0,46,0.00,,,0.00,weatherlink.com 1.10,2013-11-25 18:03:00,
2013-11-25 10:18:00,51.0,31.0,30.34,WNW,287,0.0,0.0,46,0.00,,,0.00,weatherlink.com 1.10,2013-11-25 18:18:00,
2013-11-25 10:33:00,51.7,30.0,30.34,SSW,205,0.0,1.0,44,0.00,,,0.00,weatherlink.com 1.10,2013-11-25 18:33:00,
2013-11-25 10:49:00,52.8,34.0,30.34,SSW,207,0.0,5.0,50,0.00,,,0.00,weatherlink.com 1.10,2013-11-25 18:49:00,
2013-11-25 11:04:00,53.7,34.0,30.34,SSW,207,0.0,3.0,47,0.00,,,0.00,weatherlink.com 1.10,2013-11-25 19:04:00,
2013-11-25 11:19:00,54.1,35.0,30.33,SW,222,0.0,4.0,48,0.00,,,0.00,weatherlink.com 1.10,2013-11-25 19:19:00,
2013-11-25 11:34:00,54.5,33.0,30.32,SW,215,0.0,1.0,45,0.00,,,0.00,weatherlink.com 1.10,2013-11-25 19:34:00,
2013-11-25 11:49:00,54.1,34.0,30.31,SSW,197,0.0,4.0,46,0.00,,,0.00,weatherlink.com 1.10,2013-11-25 19:49:00,
2013-11-25 12:04:00,55.2,35.0,30.30,SSW,203,0.0,5.0,47,0.00,,,0.00,weatherlink.com 1.10,2013-11-25 20:04:00,
2013-11-25 12:19:00,55.7,36.0,30.30,SSW,210,0.0,4.0,47,0.00,,,0.00,weatherlink.com 1.10,2013-11-25 20:19:00,
2013-11-25 12:34:00,55.7,37.0,30.29,SW,225,0.0,5.0,50,0.00,,,0.00,weatherlink.com 1.10,2013-11-25 20:34:00,
2013-11-25 12:49:00,56.2,35.0,30.29,SW,229,0.0,2.0,46,0.00,,,0.00,weatherlink.com 1.10,2013-11-25 20:49:00,
2013-11-25 13:04:00,56.3,36.0,30.28,SW,222,0.0,5.0,46,0.00,,,0.00,weatherlink.com 1.10,2013-11-25 21:04:00,
2013-11-25 13:19:00,56.5,35.0,30.28,SSW,208,0.0,0.0,44,0.00,,,0.00,weatherlink.com 1.10,2013-11-25 21:19:00,
2013-11-25 13:34:00,56.1,33.0,30.27,SW,217,0.0,4.0,42,0.00,,,0.00,weatherlink.com 1.10,2013-11-25 21:34:00,
2013-11-25 13:49:00,56.2,34.0,30.27,SW,219,0.0,4.0,44,0.00,,,0.00,weatherlink.com 1.10,2013-11-25 21:49:00,
2013-11-25 14:04:00,55.9,35.0,30.27,WSW,242,0.0,5.0,46,0.00,,,0.00,weatherlink.com 1.10,2013-11-25 22:04:00,
2013-11-25 14:19:00,56.2,35.0,30.27,SSW,207,3.0,3.0,45,0.00,,,0.00,weatherlink.com 1.10,2013-11-25 22:19:00,
2013-11-25 14:34:00,56.1,34.0,30.28,SSW,210,0.0,4.0,43,0.00,,,0.00,weatherlink.com 1.10,2013-11-25 22:34:00,
2013-11-25 14:49:00,56.3,34.0,30.27,SSW,207,0.0,5.0,44,0.00,,,0.00,weatherlink.com 1.10,2013-11-25 22:49:00,
2013-11-25 15:04:00,56.5,33.0,30.27,SSW,210,0.0,4.0,42,0.00,,,0.00,weatherlink.com 1.10,2013-11-25 23:04:00,
2013-11-25 15:19:00,56.3,33.0,30.27,SSW,212,0.0,1.0,42,0.00,,,0.00,weatherlink.com 1.10,2013-11-25 23:19:00,
2013-11-25 15:34:00,55.2,33.0,30.27,SSW,210,0.0,0.0,43,0.00,,,0.00,weatherlink.com 1.10,2013-11-25 23:34:00,
2013-11-25 15:49:00,54.2,34.0,30.27,SSW,212,0.0,0.0,47,0.00,,,0.00,weatherlink.com 1.10,2013-11-25 23:49:00,
2013-11-25 16:04:00,53.6,33.0,30.27,SE,140,0.0,0.0,45,0.00,,,0.00,weatherlink.com 1.10,2013-11-26 00:04:00,
2013-11-25 16:19:00,51.8,34.0,30.27,SE,129,0.0,0.0,50,0.00,,,0.00,weatherlink.com 1.10,2013-11-26 00:19:00,
2013-11-25 16:34:00,49.5,35.0,30.27,NW,323,0.0,0.0,57,0.00,,,0.00,weatherlink.com 1.10,2013-11-26 00:34:00,
2013-11-25 16:49:00,47.5,35.0,30.27,NNE,22,0.0,1.0,63,0.00,,,0.00,weatherlink.com 1.10,2013-11-26 00:49:00,
2013-11-25 17:04:00,46.9,35.0,30.27,NNE,19,0.0,0.0,64,0.00,,,0.00,weatherlink.com 1.10,2013-11-26 01:04:00,
2013-11-25 17:19:00,46.4,35.0,30.27,NNE,12,0.0,0.0,65,0.00,,,0.00,weatherlink.com 1.10,2013-11-26 01:19:00,
2013-11-25 17:35:00,44.8,34.0,30.27,NNE,23,0.0,0.0,67,0.00,,,0.00,weatherlink.com 1.10,2013-11-26 01:35:00,
2013-11-25 17:50:00,45.2,33.0,30.27,NNE,23,0.0,0.0,62,0.00,,,0.00,weatherlink.com 1.10,2013-11-26 01:50:00,
2013-11-25 18:05:00,46.3,32.0,30.27,North,5,0.0,0.0,59,0.00,,,0.00,weatherlink.com 1.10,2013-11-26 02:05:00,
2013-11-25 18:20:00,44.6,33.0,30.28,North,9,0.0,0.0,64,0.00,,,0.00,weatherlink.com 1.10,2013-11-26 02:20:00,
2013-11-25 18:35:00,45.4,34.0,30.28,NNE,19,0.0,0.0,64,0.00,,,0.00,weatherlink.com 1.10,2013-11-26 02:35:00,
2013-11-25 18:50:00,45.8,33.0,30.28,NNE,23,0.0,0.0,61,0.00,,,0.00,weatherlink.com 1.10,2013-11-26 02:50:00,
2013-11-25 19:05:00,46.4,33.0,30.29,North,355,0.0,0.0,59,0.00,,,0.00,weatherlink.com 1.10,2013-11-26 03:05:00,
2013-11-25 19:20:00,44.3,33.0,30.29,NNE,18,0.0,0.0,65,0.00,,,0.00,weatherlink.com 1.10,2013-11-26 03:20:00,
2013-11-25 19:35:00,45.2,33.0,30.29,NNE,19,0.0,4.0,62,0.00,,,0.00,weatherlink.com 1.10,2013-11-26 03:35:00,
2013-11-25 19:50:00,44.6,33.0,30.29,NNE,12,0.0,0.0,63,0.00,,,0.00,weatherlink.com 1.10,2013-11-26 03:50:00,
2013-11-25 20:05:00,44.1,33.0,30.29,NNE,22,0.0,0.0,64,0.00,,,0.00,weatherlink.com 1.10,2013-11-26 04:05:00,
2013-11-25 20:20:00,43.7,33.0,30.30,NNE,14,0.0,3.0,65,0.00,,,0.00,weatherlink.com 1.10,2013-11-26 04:20:00,
2013-11-25 20:35:00,44.9,32.0,30.30,NNE,16,0.0,1.0,61,0.00,,,0.00,weatherlink.com 1.10,2013-11-26 04:35:00,
2013-11-25 20:50:00,44.4,32.0,30.30,NNW,345,0.0,2.0,62,0.00,,,0.00,weatherlink.com 1.10,2013-11-26 04:50:00,
2013-11-25 21:05:00,44.8,32.0,30.30,NNE,14,0.0,2.0,61,0.00,,,0.00,weatherlink.com 1.10,2013-11-26 05:05:00,
2013-11-25 21:20:00,44.0,32.0,30.30,NNE,18,0.0,0.0,63,0.00,,,0.00,weatherlink.com 1.10,2013-11-26 05:20:00,
2013-11-25 21:35:00,43.3,32.0,30.30,NNE,22,0.0,3.0,64,0.00,,,0.00,weatherlink.com 1.10,2013-11-26 05:35:00,
2013-11-25 21:50:00,44.5,32.0,30.30,NNE,16,3.0,3.0,61,0.00,,,0.00,weatherlink.com 1.10,2013-11-26 05:50:00,
2013-11-25 22:05:00,45.1,31.0,30.29,North,359,0.0,2.0,59,0.00,,,0.00,weatherlink.com 1.10,2013-11-26 06:05:00,
2013-11-25 22:20:00,44.5,31.0,30.29,NNE,26,0.0,3.0,60,0.00,,,0.00,weatherlink.com 1.10,2013-11-26 06:20:00,
2013-11-25 22:35:00,45.4,31.0,30.29,NNE,20,0.0,1.0,57,0.00,,,0.00,weatherlink.com 1.10,2013-11-26 06:35:00,
2013-11-25 22:50:00,44.4,31.0,30.29,NNE,27,0.0,3.0,60,0.00,,,0.00,weatherlink.com 1.10,2013-11-26 06:50:00,
2013-11-25 23:05:00,43.2,31.0,30.29,NNE,22,0.0,3.0,62,0.00,,,0.00,weatherlink.com 1.10,2013-11-26 07:05:00,
2013-11-25 23:20:00,44.7,31.0,30.29,NNE,29,0.0,3.0,59,0.00,,,0.00,weatherlink.com 1.10,2013-11-26 07:20:00,
2013-11-25 23:35:00,45.5,31.0,30.30,NNE,12,0.0,2.0,57,0.00,,,0.00,weatherlink.com 1.10,2013-11-26 07:35:00,
2013-11-25 23:50:00,45.6,31.0,30.29,NNE,26,0.0,3.0,57,0.00,,,0.00,weatherlink.com 1.10,2013-11-26 07:50:00,